createdAt,value
2017-11-23T00:00:02.990Z,62.96
2017-11-23T00:00:34.631Z,63.01
2017-11-23T00:01:06.237Z,62.99
2017-11-23T00:01:37.849Z,62.96
2017-11-23T00:02:09.562Z,63.03
2017-11-23T00:02:41.212Z,63.05
2017-11-23T00:03:12.841Z,63.04
2017-11-23T00:03:44.482Z,63.04
2017-11-23T00:04:16.089Z,63.06
2017-11-23T00:04:47.700Z,62.90
2017-11-23T00:05:19.309Z,62.92
2017-11-23T00:05:51.049Z,62.93
2017-11-23T00:06:22.656Z,62.97
2017-11-23T00:06:54.261Z,63.00
2017-11-23T00:07:25.976Z,63.08
2017-11-23T00:07:57.617Z,63.08
2017-11-23T00:08:29.220Z,63.09
2017-11-23T00:09:00.869Z,63.28
2017-11-23T00:09:32.486Z,63.23
2017-11-23T00:10:04.134Z,63.21
2017-11-23T00:10:35.745Z,63.17
2017-11-23T00:11:07.471Z,63.26
2017-11-23T00:11:39.111Z,63.46
2017-11-23T00:12:10.721Z,63.26
2017-11-23T00:12:42.329Z,63.32
2017-11-23T00:13:14.037Z,63.38
2017-11-23T00:13:45.676Z,63.40
2017-11-23T00:14:17.321Z,63.47
2017-11-23T00:14:48.959Z,63.46
2017-11-23T00:15:20.610Z,63.47
2017-11-23T00:15:52.257Z,63.40
2017-11-23T00:16:23.887Z,63.77
2017-11-23T00:16:55.496Z,63.65
2017-11-23T00:17:27.108Z,63.61
2017-11-23T00:17:58.713Z,63.67
2017-11-23T00:18:30.456Z,63.51
2017-11-23T00:19:02.064Z,63.58
2017-11-23T00:19:33.749Z,63.46
2017-11-23T00:20:05.389Z,63.53
2017-11-23T00:20:37.249Z,63.47
2017-11-23T00:21:08.857Z,63.45
2017-11-23T00:21:40.464Z,63.54
2017-11-23T00:22:12.084Z,63.64
2017-11-23T00:22:43.701Z,63.37
2017-11-23T00:23:15.540Z,63.37
2017-11-23T00:23:47.183Z,63.49
2017-11-23T00:24:18.789Z,63.43
2017-11-23T00:24:50.409Z,63.50
2017-11-23T00:25:22.018Z,63.62
2017-11-23T00:25:53.668Z,63.52
2017-11-23T00:26:25.391Z,63.55
2017-11-23T00:26:57.033Z,63.59
2017-11-23T00:27:28.675Z,63.71
2017-11-23T00:28:00.317Z,63.69
2017-11-23T00:28:31.923Z,63.53
2017-11-23T00:29:03.538Z,63.45
2017-11-23T00:29:35.153Z,63.55
2017-11-23T00:30:06.887Z,63.64
2017-11-23T00:30:38.526Z,63.49
2017-11-23T00:31:10.172Z,63.56
2017-11-23T00:31:41.811Z,63.67
2017-11-23T00:32:13.634Z,63.77
2017-11-23T00:32:45.241Z,63.58
2017-11-23T00:33:16.844Z,63.65
2017-11-23T00:33:48.685Z,63.60
2017-11-23T00:34:20.327Z,63.56
2017-11-23T00:34:51.937Z,63.41
2017-11-23T00:35:23.544Z,63.48
2017-11-23T00:35:55.156Z,63.53
2017-11-23T00:36:26.820Z,63.59
2017-11-23T00:36:58.537Z,63.57
2017-11-23T00:37:30.178Z,63.70
2017-11-23T00:38:01.789Z,63.83
2017-11-23T00:38:33.396Z,63.73
2017-11-23T00:39:05.004Z,63.83
2017-11-23T00:39:36.609Z,63.84
2017-11-23T00:40:08.225Z,63.57
2017-11-23T00:40:39.852Z,63.80
2017-11-23T00:41:11.658Z,63.94
2017-11-23T00:41:43.320Z,63.55
2017-11-23T00:42:14.956Z,63.70
2017-11-23T00:42:46.565Z,63.69
2017-11-23T00:43:18.236Z,63.56
2017-11-23T00:43:49.843Z,63.57
2017-11-23T00:44:21.449Z,63.82
2017-11-23T00:44:53.166Z,64.15
2017-11-23T00:45:24.806Z,63.69
2017-11-23T00:45:56.418Z,63.90
2017-11-23T00:46:28.090Z,63.65
2017-11-23T00:46:59.701Z,63.84
2017-11-23T00:47:31.312Z,63.76
2017-11-23T00:48:02.917Z,63.76
2017-11-23T00:48:34.529Z,63.77
2017-11-23T00:49:06.301Z,63.67
2017-11-23T00:49:37.943Z,63.80
2017-11-23T00:50:09.584Z,63.83
2017-11-23T00:50:41.193Z,63.94
2017-11-23T00:51:12.812Z,63.85
2017-11-23T00:51:44.420Z,63.96
2017-11-23T00:52:16.156Z,63.85
2017-11-23T00:52:47.761Z,63.92
2017-11-23T00:53:19.380Z,63.85
2017-11-23T00:53:51.036Z,64.13
2017-11-23T00:54:22.645Z,64.10
2017-11-23T00:54:54.361Z,64.19
2017-11-23T00:55:26.004Z,64.06
2017-11-23T00:55:57.646Z,63.94
2017-11-23T00:56:29.287Z,64.12
2017-11-23T00:57:00.896Z,64.25
2017-11-23T00:57:32.502Z,64.15
2017-11-23T00:58:04.112Z,64.19
2017-11-23T00:58:35.855Z,64.23
2017-11-23T00:59:07.517Z,64.16
2017-11-23T00:59:39.138Z,64.14
2017-11-23T01:00:10.750Z,64.21
2017-11-23T01:00:42.364Z,64.36
2017-11-23T01:01:13.980Z,64.23
2017-11-23T01:01:45.706Z,64.32
2017-11-23T01:02:17.348Z,64.34
2017-11-23T01:02:48.957Z,64.56
2017-11-23T01:03:20.569Z,64.35
2017-11-23T01:03:52.173Z,64.25
2017-11-23T01:04:23.825Z,64.36
2017-11-23T01:04:55.432Z,64.32
2017-11-23T01:05:27.040Z,64.20
2017-11-23T01:05:58.645Z,64.21
2017-11-23T01:06:30.485Z,64.25
2017-11-23T01:07:02.124Z,63.95
2017-11-23T01:07:33.767Z,64.16
2017-11-23T01:08:05.409Z,64.05
2017-11-23T01:08:37.051Z,63.88
2017-11-23T01:09:08.693Z,64.09
2017-11-23T01:09:40.340Z,63.80
2017-11-23T01:10:11.977Z,63.87
2017-11-23T01:10:43.618Z,63.91
2017-11-23T01:11:15.225Z,63.80
2017-11-23T01:11:46.832Z,63.98
2017-11-23T01:12:18.543Z,63.86
2017-11-23T01:12:50.186Z,63.94
2017-11-23T01:13:21.793Z,63.88
2017-11-23T01:13:53.415Z,63.84
2017-11-23T01:14:25.021Z,63.89
2017-11-23T01:14:56.679Z,64.01
2017-11-23T01:15:28.396Z,63.96
2017-11-23T01:16:00.006Z,63.99
2017-11-23T01:16:31.613Z,64.12
2017-11-23T01:17:03.224Z,64.13
2017-11-23T01:17:34.963Z,64.15
2017-11-23T01:18:06.573Z,64.19
2017-11-23T01:18:38.180Z,64.30
2017-11-23T01:19:09.789Z,64.25
2017-11-23T01:19:41.530Z,64.34
2017-11-23T01:20:13.176Z,64.36
2017-11-23T01:20:44.813Z,64.28
2017-11-23T01:21:16.426Z,64.35
2017-11-23T01:21:48.865Z,64.34
2017-11-23T01:22:26.257Z,64.30
2017-11-23T01:22:57.868Z,64.46
2017-11-23T01:23:29.782Z,64.45
2017-11-23T01:24:01.390Z,64.45
2017-11-23T01:24:32.996Z,64.54
2017-11-23T01:25:04.645Z,64.55
2017-11-23T01:25:36.248Z,64.65
2017-11-23T01:26:07.857Z,64.66
2017-11-23T01:26:39.465Z,64.74
2017-11-23T01:27:11.100Z,64.65
2017-11-23T01:27:42.917Z,64.69
2017-11-23T01:28:14.560Z,64.64
2017-11-23T01:28:46.169Z,64.60
2017-11-23T01:29:17.776Z,64.65
2017-11-23T01:29:49.385Z,64.62
2017-11-23T01:30:21.128Z,64.69
2017-11-23T01:30:52.776Z,64.60
2017-11-23T01:31:24.409Z,64.60
2017-11-23T01:31:56.052Z,64.62
2017-11-23T01:32:27.694Z,64.72
2017-11-23T01:32:59.304Z,64.66
2017-11-23T01:33:30.918Z,64.59
2017-11-23T01:34:02.524Z,64.73
2017-11-23T01:34:34.263Z,64.73
2017-11-23T01:35:05.912Z,64.80
2017-11-23T01:35:37.549Z,64.83
2017-11-23T01:36:09.188Z,64.91
2017-11-23T01:36:40.841Z,64.95
2017-11-23T01:37:12.472Z,65.18
2017-11-23T01:37:44.113Z,65.18
2017-11-23T01:38:15.720Z,65.26
2017-11-23T01:38:47.332Z,65.55
2017-11-23T01:39:19.040Z,65.61
2017-11-23T01:39:50.682Z,65.33
2017-11-23T01:40:22.288Z,65.53
2017-11-23T01:40:53.901Z,65.31
2017-11-23T01:41:25.505Z,65.44
2017-11-23T01:41:57.108Z,65.40
2017-11-23T01:42:28.890Z,65.45
2017-11-23T01:43:00.533Z,65.51
2017-11-23T01:43:32.175Z,65.47
2017-11-23T01:44:03.817Z,65.47
2017-11-23T01:44:35.428Z,65.63
2017-11-23T01:45:07.041Z,65.63
2017-11-23T01:45:38.649Z,65.54
2017-11-23T01:46:10.385Z,65.46
2017-11-23T01:46:42.032Z,65.52
2017-11-23T01:47:13.667Z,65.56
2017-11-23T01:47:45.310Z,65.62
2017-11-23T01:48:16.973Z,65.70
2017-11-23T01:48:48.593Z,65.59
2017-11-23T01:49:20.237Z,65.62
2017-11-23T01:49:51.877Z,65.67
2017-11-23T01:50:23.520Z,65.67
2017-11-23T01:50:55.161Z,65.51
2017-11-23T01:51:26.820Z,65.60
2017-11-23T01:51:58.444Z,65.61
2017-11-23T01:52:30.049Z,65.57
2017-11-23T01:53:01.728Z,65.55
2017-11-23T01:53:33.371Z,65.56
2017-11-23T01:54:05.012Z,65.68
2017-11-23T01:54:36.617Z,65.71
2017-11-23T01:55:08.225Z,65.71
2017-11-23T01:55:39.844Z,65.51
2017-11-23T01:56:11.580Z,65.45
2017-11-23T01:56:43.184Z,65.33
2017-11-23T01:57:14.788Z,65.52
2017-11-23T01:57:46.506Z,65.49
2017-11-23T01:58:18.160Z,65.36
2017-11-23T01:58:49.813Z,65.36
2017-11-23T01:59:21.473Z,65.25
2017-11-23T01:59:53.093Z,65.39
2017-11-23T02:00:25.027Z,65.43
2017-11-23T02:00:56.653Z,65.30
2017-11-23T02:01:28.262Z,65.40
2017-11-23T02:01:59.873Z,65.36
2017-11-23T02:02:31.590Z,65.21
2017-11-23T02:03:03.201Z,65.27
2017-11-23T02:03:34.819Z,65.42
2017-11-23T02:04:06.469Z,65.14
2017-11-23T02:04:38.077Z,65.21
2017-11-23T02:05:09.801Z,65.29
2017-11-23T02:05:41.442Z,65.36
2017-11-23T02:06:13.284Z,65.22
2017-11-23T02:06:44.903Z,65.36
2017-11-23T02:07:16.509Z,65.62
2017-11-23T02:07:48.116Z,65.43
2017-11-23T02:08:19.958Z,65.55
2017-11-23T02:08:51.620Z,65.98
2017-11-23T02:09:23.242Z,65.85
2017-11-23T02:09:54.884Z,65.70
2017-11-23T02:10:26.525Z,65.58
2017-11-23T02:10:58.144Z,65.50
2017-11-23T02:11:29.753Z,65.47
2017-11-23T02:12:01.413Z,65.72
2017-11-23T02:12:33.022Z,65.49
2017-11-23T02:13:04.737Z,65.50
2017-11-23T02:13:36.377Z,65.63
2017-11-23T02:14:08.046Z,65.68
2017-11-23T02:14:39.669Z,65.49
2017-11-23T02:15:11.284Z,65.46
2017-11-23T02:15:42.901Z,65.28
2017-11-23T02:16:14.512Z,65.41
2017-11-23T02:16:46.129Z,65.38
2017-11-23T02:17:17.870Z,65.36
2017-11-23T02:17:49.512Z,65.34
2017-11-23T02:18:21.154Z,65.42
2017-11-23T02:18:52.796Z,65.43
2017-11-23T02:19:24.447Z,65.27
2017-11-23T02:19:56.080Z,65.03
2017-11-23T02:20:27.722Z,65.26
2017-11-23T02:20:59.364Z,65.20
2017-11-23T02:21:31.005Z,65.29
2017-11-23T02:22:02.647Z,65.08
2017-11-23T02:22:34.293Z,65.43
2017-11-23T02:23:05.929Z,65.34
2017-11-23T02:23:37.582Z,65.29
2017-11-23T02:24:09.215Z,65.32
2017-11-23T02:24:40.857Z,65.37
2017-11-23T02:25:12.499Z,65.51
2017-11-23T02:25:44.141Z,65.42
2017-11-23T02:26:15.783Z,65.22
2017-11-23T02:26:47.428Z,65.45
2017-11-23T02:27:19.098Z,65.53
2017-11-23T02:27:50.716Z,65.45
2017-11-23T02:28:22.351Z,65.33
2017-11-23T02:28:53.993Z,65.28
2017-11-23T02:29:25.634Z,65.32
2017-11-23T02:29:57.273Z,65.32
2017-11-23T02:30:28.916Z,65.31
2017-11-23T02:31:00.561Z,65.17
2017-11-23T02:31:32.202Z,65.33
2017-11-23T02:32:03.842Z,65.30
2017-11-23T02:32:35.488Z,65.36
2017-11-23T02:33:07.128Z,65.37
2017-11-23T02:33:38.769Z,65.34
2017-11-23T02:34:10.411Z,65.21
2017-11-23T02:34:42.056Z,65.42
2017-11-23T02:35:13.699Z,65.48
2017-11-23T02:35:45.338Z,65.42
2017-11-23T02:36:16.950Z,65.40
2017-11-23T02:36:48.580Z,65.34
2017-11-23T02:37:20.197Z,65.41
2017-11-23T02:37:51.804Z,65.38
2017-11-23T02:38:23.461Z,65.48
2017-11-23T02:38:55.194Z,65.69
2017-11-23T02:39:26.831Z,65.70
2017-11-23T02:39:58.446Z,65.71
2017-11-23T02:40:30.057Z,65.47
2017-11-23T02:41:01.661Z,65.49
2017-11-23T02:41:33.401Z,65.56
2017-11-23T02:42:05.014Z,65.36
2017-11-23T02:42:36.625Z,65.59
2017-11-23T02:43:08.505Z,65.48
2017-11-23T02:43:40.273Z,65.41
2017-11-23T02:44:11.895Z,65.33
2017-11-23T02:44:43.511Z,65.44
2017-11-23T02:45:15.126Z,65.25
2017-11-23T02:45:46.741Z,65.61
2017-11-23T02:46:18.356Z,65.29
2017-11-23T02:46:49.969Z,65.43
2017-11-23T02:47:21.581Z,65.43
2017-11-23T02:47:53.189Z,65.40
2017-11-23T02:48:24.818Z,65.34
2017-11-23T02:48:56.429Z,65.73
2017-11-23T02:49:28.048Z,65.61
2017-11-23T02:49:59.667Z,65.54
2017-11-23T02:50:31.310Z,65.69
2017-11-23T02:51:02.920Z,65.57
2017-11-23T02:51:34.594Z,65.58
2017-11-23T02:52:06.262Z,65.81
2017-11-23T02:52:37.887Z,65.66
2017-11-23T02:53:09.517Z,65.87
2017-11-23T02:53:41.162Z,65.67
2017-11-23T02:54:12.773Z,65.68
2017-11-23T02:54:44.382Z,65.58
2017-11-23T02:55:15.992Z,65.75
2017-11-23T02:55:47.729Z,65.66
2017-11-23T02:56:19.333Z,65.71
2017-11-23T02:56:50.944Z,65.84
2017-11-23T02:57:22.596Z,66.02
2017-11-23T02:57:54.201Z,65.80
2017-11-23T02:58:25.939Z,65.86
2017-11-23T02:58:57.550Z,65.90
2017-11-23T02:59:29.224Z,65.93
2017-11-23T03:00:00.867Z,65.92
2017-11-23T03:00:32.506Z,66.20
2017-11-23T03:01:04.113Z,66.29
2017-11-23T03:01:35.729Z,66.18
2017-11-23T03:02:07.349Z,66.22
2017-11-23T03:02:39.027Z,66.12
2017-11-23T03:03:10.636Z,66.22
2017-11-23T03:03:42.253Z,66.27
2017-11-23T03:04:14.000Z,66.19
2017-11-23T03:04:45.608Z,66.83
2017-11-23T03:05:17.217Z,67.61
2017-11-23T03:05:48.868Z,67.14
2017-11-23T03:06:20.477Z,66.75
2017-11-23T03:06:52.209Z,66.52
2017-11-23T03:07:24.038Z,66.34
2017-11-23T03:07:55.649Z,66.31
2017-11-23T03:08:27.297Z,66.14
2017-11-23T03:08:58.904Z,65.88
2017-11-23T03:09:30.726Z,66.08
2017-11-23T03:10:02.373Z,65.88
2017-11-23T03:10:34.009Z,66.05
2017-11-23T03:11:05.657Z,66.10
2017-11-23T03:11:37.293Z,66.17
2017-11-23T03:12:08.935Z,66.00
2017-11-23T03:12:40.545Z,65.99
2017-11-23T03:13:12.223Z,66.06
2017-11-23T03:13:43.861Z,66.12
2017-11-23T03:14:15.504Z,66.04
2017-11-23T03:14:47.145Z,66.19
2017-11-23T03:15:18.787Z,66.24
2017-11-23T03:15:50.397Z,66.09
2017-11-23T03:16:22.005Z,66.13
2017-11-23T03:16:53.660Z,66.11
2017-11-23T03:17:25.264Z,66.56
2017-11-23T03:17:56.996Z,66.26
2017-11-23T03:18:28.604Z,66.15
2017-11-23T03:19:00.217Z,66.26
2017-11-23T03:19:31.824Z,66.23
2017-11-23T03:20:03.564Z,66.28
2017-11-23T03:20:35.177Z,66.05
2017-11-23T03:21:06.792Z,67.48
2017-11-23T03:21:38.396Z,66.48
2017-11-23T03:22:10.041Z,66.43
2017-11-23T03:22:41.773Z,66.29
2017-11-23T03:23:13.416Z,66.35
2017-11-23T03:23:45.058Z,66.33
2017-11-23T03:24:16.665Z,66.31
2017-11-23T03:24:48.344Z,66.38
2017-11-23T03:25:19.983Z,66.42
2017-11-23T03:25:51.593Z,66.36
2017-11-23T03:26:23.199Z,66.23
2017-11-23T03:26:54.908Z,66.31
2017-11-23T03:27:26.514Z,66.31
2017-11-23T03:27:58.121Z,66.23
2017-11-23T03:28:29.835Z,66.28
2017-11-23T03:29:01.479Z,66.37
2017-11-23T03:29:33.118Z,66.43
2017-11-23T03:30:04.786Z,66.31
2017-11-23T03:30:36.409Z,66.36
2017-11-23T03:31:08.054Z,66.36
2017-11-23T03:31:39.685Z,66.24
2017-11-23T03:32:11.329Z,66.27
2017-11-23T03:32:42.936Z,66.15
2017-11-23T03:33:14.548Z,66.11
2017-11-23T03:33:46.156Z,66.05
2017-11-23T03:34:17.896Z,66.12
2017-11-23T03:34:49.537Z,66.13
2017-11-23T03:35:21.184Z,65.86
2017-11-23T03:35:52.821Z,65.99
2017-11-23T03:36:24.479Z,65.94
2017-11-23T03:36:56.144Z,66.12
2017-11-23T03:37:27.748Z,66.06
2017-11-23T03:37:59.388Z,66.20
2017-11-23T03:38:30.992Z,66.02
2017-11-23T03:39:02.608Z,66.00
2017-11-23T03:39:34.218Z,66.03
2017-11-23T03:40:05.864Z,66.07
2017-11-23T03:40:37.606Z,65.99
2017-11-23T03:41:09.241Z,65.88
2017-11-23T03:41:40.882Z,65.90
2017-11-23T03:42:12.524Z,66.15
2017-11-23T03:42:44.156Z,65.84
2017-11-23T03:43:15.765Z,65.72
2017-11-23T03:43:47.369Z,65.76
2017-11-23T03:44:19.092Z,65.68
2017-11-23T03:44:50.732Z,65.71
2017-11-23T03:45:22.392Z,65.67
2017-11-23T03:45:54.004Z,65.61
2017-11-23T03:46:25.609Z,65.86
2017-11-23T03:46:57.220Z,65.47
2017-11-23T03:47:28.952Z,65.73
2017-11-23T03:48:00.584Z,65.51
2017-11-23T03:48:32.227Z,65.50
2017-11-23T03:49:03.838Z,65.77
2017-11-23T03:49:35.444Z,65.59
2017-11-23T03:50:07.071Z,65.59
2017-11-23T03:50:38.684Z,65.76
2017-11-23T03:51:10.301Z,65.54
2017-11-23T03:51:41.913Z,65.38
2017-11-23T03:52:13.516Z,64.82
2017-11-23T03:52:45.362Z,64.16
2017-11-23T03:53:17.004Z,63.94
2017-11-23T03:53:48.646Z,63.47
2017-11-23T03:54:20.287Z,63.14
2017-11-23T03:54:51.901Z,63.02
2017-11-23T03:55:23.512Z,63.53
2017-11-23T03:55:55.169Z,63.86
2017-11-23T03:56:26.789Z,63.87
2017-11-23T03:56:58.396Z,63.81
2017-11-23T03:57:30.002Z,63.88
2017-11-23T03:58:01.609Z,64.36
2017-11-23T03:58:34.078Z,63.92
2017-11-23T03:59:05.702Z,64.02
2017-11-23T03:59:37.321Z,63.89
2017-11-23T04:00:08.958Z,63.92
2017-11-23T04:00:40.604Z,64.07
2017-11-23T04:01:12.249Z,64.03
2017-11-23T04:01:43.889Z,64.13
2017-11-23T04:02:15.530Z,64.14
2017-11-23T04:02:47.137Z,64.23
2017-11-23T04:03:18.748Z,64.36
2017-11-23T04:03:50.405Z,64.35
2017-11-23T04:04:22.021Z,64.53
2017-11-23T04:04:53.641Z,64.34
2017-11-23T04:05:25.382Z,64.43
2017-11-23T04:05:56.990Z,64.44
2017-11-23T04:06:28.601Z,64.47
2017-11-23T04:07:00.204Z,64.54
2017-11-23T04:07:31.813Z,64.47
2017-11-23T04:08:03.420Z,64.51
2017-11-23T04:08:35.028Z,64.54
2017-11-23T04:09:06.681Z,64.51
2017-11-23T04:09:38.517Z,64.43
2017-11-23T04:10:10.121Z,64.46
2017-11-23T04:10:41.724Z,64.42
2017-11-23T04:11:13.443Z,64.41
2017-11-23T04:11:45.052Z,64.44
2017-11-23T04:12:16.657Z,64.42
2017-11-23T04:12:48.268Z,64.42
2017-11-23T04:13:19.873Z,64.33
2017-11-23T04:13:51.485Z,64.35
2017-11-23T04:14:23.133Z,64.31
2017-11-23T04:14:54.737Z,64.32
2017-11-23T04:15:26.578Z,64.36
2017-11-23T04:15:58.224Z,64.35
2017-11-23T04:16:29.861Z,64.34
2017-11-23T04:17:01.508Z,64.33
2017-11-23T04:17:33.147Z,64.19
2017-11-23T04:18:04.757Z,64.19
2017-11-23T04:18:36.360Z,64.19
2017-11-23T04:19:08.071Z,64.20
2017-11-23T04:19:39.712Z,64.16
2017-11-23T04:20:11.342Z,64.18
2017-11-23T04:20:42.949Z,64.22
2017-11-23T04:21:14.557Z,64.21
2017-11-23T04:21:46.281Z,64.24
2017-11-23T04:22:17.937Z,64.23
2017-11-23T04:22:49.562Z,64.23
2017-11-23T04:23:21.169Z,64.25
2017-11-23T04:23:52.789Z,64.25
2017-11-23T04:24:24.393Z,64.24
2017-11-23T04:24:56.132Z,64.28
2017-11-23T04:25:27.776Z,64.23
2017-11-23T04:26:00.114Z,64.27
2017-11-23T04:26:31.980Z,64.26
2017-11-23T04:27:03.608Z,64.21
2017-11-23T04:27:35.221Z,64.22
2017-11-23T04:28:06.845Z,64.21
2017-11-23T04:28:38.472Z,64.22
2017-11-23T04:29:10.189Z,64.20
2017-11-23T04:29:41.831Z,64.10
2017-11-23T04:30:13.443Z,64.04
2017-11-23T04:30:45.049Z,64.08
2017-11-23T04:31:16.656Z,64.04
2017-11-23T04:31:48.260Z,64.08
2017-11-23T04:32:19.869Z,64.07
2017-11-23T04:32:51.512Z,64.07
2017-11-23T04:33:23.325Z,64.09
2017-11-23T04:33:54.966Z,64.10
2017-11-23T04:34:26.572Z,64.07
2017-11-23T04:34:58.180Z,64.08
2017-11-23T04:35:29.892Z,64.08
2017-11-23T04:36:01.501Z,64.08
2017-11-23T04:36:33.119Z,64.05
2017-11-23T04:37:04.764Z,64.05
2017-11-23T04:37:36.369Z,64.05
2017-11-23T04:38:08.101Z,64.03
2017-11-23T04:38:39.743Z,64.01
2017-11-23T04:39:11.353Z,63.94
2017-11-23T04:39:43.334Z,63.95
2017-11-23T04:40:14.940Z,63.95
2017-11-23T04:40:46.545Z,63.95
2017-11-23T04:41:18.281Z,63.96
2017-11-23T04:41:49.898Z,63.98
2017-11-23T04:42:21.505Z,64.04
2017-11-23T04:42:53.113Z,64.04
2017-11-23T04:43:24.827Z,64.01
2017-11-23T04:43:56.437Z,64.00
2017-11-23T04:44:28.040Z,63.80
2017-11-23T04:44:59.685Z,63.66
2017-11-23T04:45:31.395Z,63.58
2017-11-23T04:46:03.037Z,63.54
2017-11-23T04:46:34.682Z,63.45
2017-11-23T04:47:06.320Z,63.50
2017-11-23T04:47:37.962Z,63.47
2017-11-23T04:48:09.605Z,63.47
2017-11-23T04:48:41.229Z,63.04
2017-11-23T04:49:12.849Z,61.44
2017-11-23T04:49:44.456Z,61.28
2017-11-23T04:50:16.108Z,62.02
2017-11-23T04:50:47.716Z,62.00
2017-11-23T04:51:19.457Z,61.80
2017-11-23T04:51:51.098Z,61.52
2017-11-23T04:52:22.740Z,61.42
2017-11-23T04:52:54.381Z,61.60
2017-11-23T04:53:25.987Z,61.68
2017-11-23T04:53:57.597Z,61.67
2017-11-23T04:54:29.307Z,61.82
2017-11-23T04:55:00.949Z,62.03
2017-11-23T04:55:32.597Z,62.01
2017-11-23T04:56:04.233Z,62.15
2017-11-23T04:56:35.874Z,62.24
2017-11-23T04:57:07.484Z,62.54
2017-11-23T04:57:39.097Z,62.42
2017-11-23T04:58:10.701Z,62.46
2017-11-23T04:58:42.443Z,62.50
2017-11-23T04:59:14.085Z,62.62
2017-11-23T04:59:45.726Z,62.72
2017-11-23T05:00:17.376Z,62.67
2017-11-23T05:00:49.021Z,62.83
2017-11-23T05:01:20.651Z,63.03
2017-11-23T05:01:52.257Z,63.01
2017-11-23T05:02:23.869Z,63.07
2017-11-23T05:02:55.579Z,63.02
2017-11-23T05:03:27.220Z,63.05
2017-11-23T05:03:58.824Z,63.19
2017-11-23T05:04:30.437Z,63.26
2017-11-23T05:05:02.045Z,63.29
2017-11-23T05:05:33.656Z,63.34
2017-11-23T05:06:05.429Z,63.32
2017-11-23T05:06:37.071Z,63.36
2017-11-23T05:07:08.715Z,63.41
2017-11-23T05:07:40.356Z,63.43
2017-11-23T05:08:11.997Z,63.56
2017-11-23T05:08:43.605Z,63.61
2017-11-23T05:09:15.232Z,63.68
2017-11-23T05:09:46.849Z,63.73
2017-11-23T05:10:18.465Z,63.74
2017-11-23T05:10:50.207Z,63.89
2017-11-23T05:11:21.852Z,63.79
2017-11-23T05:11:53.466Z,63.98
2017-11-23T05:12:25.072Z,64.07
2017-11-23T05:12:56.676Z,64.14
2017-11-23T05:13:28.416Z,64.01
2017-11-23T05:14:00.022Z,64.15
2017-11-23T05:14:31.632Z,64.05
2017-11-23T05:15:03.341Z,63.90
2017-11-23T05:15:34.985Z,64.00
2017-11-23T05:16:06.616Z,64.07
2017-11-23T05:16:38.272Z,64.01
2017-11-23T05:17:09.910Z,64.07
2017-11-23T05:17:41.522Z,64.01
2017-11-23T05:18:13.125Z,64.05
2017-11-23T05:18:44.835Z,64.02
2017-11-23T05:19:16.444Z,64.16
2017-11-23T05:19:48.048Z,64.12
2017-11-23T05:20:19.761Z,64.11
2017-11-23T05:20:51.368Z,64.15
2017-11-23T05:21:22.972Z,64.14
2017-11-23T05:21:54.686Z,64.18
2017-11-23T05:22:26.292Z,64.30
2017-11-23T05:22:57.914Z,64.15
2017-11-23T05:23:29.521Z,64.16
2017-11-23T05:24:01.251Z,64.24
2017-11-23T05:24:32.897Z,64.14
2017-11-23T05:25:04.545Z,64.09
2017-11-23T05:25:36.178Z,64.21
2017-11-23T05:26:07.789Z,64.19
2017-11-23T05:26:39.396Z,64.41
2017-11-23T05:27:11.004Z,64.29
2017-11-23T05:27:42.612Z,64.48
2017-11-23T05:28:14.217Z,64.50
2017-11-23T05:28:45.860Z,64.49
2017-11-23T05:29:17.514Z,64.60
2017-11-23T05:29:49.120Z,64.52
2017-11-23T05:30:20.957Z,64.65
2017-11-23T05:30:52.599Z,64.54
2017-11-23T05:31:24.244Z,64.63
2017-11-23T05:31:55.883Z,64.50
2017-11-23T05:32:27.525Z,64.70
2017-11-23T05:32:59.166Z,64.53
2017-11-23T05:33:30.811Z,64.58
2017-11-23T05:34:02.450Z,64.63
2017-11-23T05:34:34.057Z,64.76
2017-11-23T05:35:05.733Z,64.70
2017-11-23T05:35:37.341Z,64.70
2017-11-23T05:36:08.954Z,64.73
2017-11-23T05:36:40.560Z,64.79
2017-11-23T05:37:12.301Z,64.72
2017-11-23T05:37:43.943Z,64.77
2017-11-23T05:38:15.585Z,64.84
2017-11-23T05:38:47.233Z,64.76
2017-11-23T05:39:18.868Z,64.71
2017-11-23T05:39:50.472Z,64.75
2017-11-23T05:40:22.152Z,64.81
2017-11-23T05:40:53.794Z,64.52
2017-11-23T05:41:25.405Z,64.62
2017-11-23T05:41:57.013Z,64.66
2017-11-23T05:42:28.621Z,64.74
2017-11-23T05:43:00.363Z,64.57
2017-11-23T05:43:31.969Z,64.64
2017-11-23T05:44:03.576Z,64.70
2017-11-23T05:44:35.288Z,64.66
2017-11-23T05:45:06.952Z,64.59
2017-11-23T05:45:38.571Z,64.89
2017-11-23T05:46:10.180Z,64.57
2017-11-23T05:46:41.789Z,64.70
2017-11-23T05:47:13.497Z,64.68
2017-11-23T05:47:45.106Z,64.62
2017-11-23T05:48:16.725Z,64.73
2017-11-23T05:48:48.328Z,64.72
2017-11-23T05:49:20.066Z,64.78
2017-11-23T05:49:51.707Z,64.51
2017-11-23T05:50:23.367Z,64.53
2017-11-23T05:50:54.991Z,64.60
2017-11-23T05:51:26.601Z,64.70
2017-11-23T05:51:58.213Z,64.78
2017-11-23T05:52:29.824Z,64.80
2017-11-23T05:53:01.559Z,64.70
2017-11-23T05:53:33.163Z,64.77
2017-11-23T05:54:04.768Z,64.81
2017-11-23T05:54:36.484Z,64.71
2017-11-23T05:55:08.125Z,64.66
2017-11-23T05:55:39.792Z,64.79
2017-11-23T05:56:11.410Z,64.79
2017-11-23T05:56:43.052Z,64.77
2017-11-23T05:57:14.659Z,64.66
2017-11-23T05:57:46.281Z,64.72
2017-11-23T05:58:17.892Z,64.78
2017-11-23T05:58:49.620Z,64.68
2017-11-23T05:59:21.228Z,64.63
2017-11-23T05:59:52.837Z,64.82
2017-11-23T06:00:24.445Z,64.73
2017-11-23T06:00:56.088Z,64.71
2017-11-23T06:01:27.828Z,64.72
2017-11-23T06:01:59.471Z,64.61
2017-11-23T06:02:31.961Z,64.69
2017-11-23T06:03:03.642Z,64.94
2017-11-23T06:03:35.268Z,64.78
2017-11-23T06:04:06.915Z,64.89
2017-11-23T06:04:38.602Z,64.69
2017-11-23T06:05:11.078Z,65.02
2017-11-23T06:05:42.807Z,64.71
2017-11-23T06:06:14.423Z,64.90
2017-11-23T06:06:46.029Z,64.89
2017-11-23T06:07:17.632Z,64.83
2017-11-23T06:07:50.433Z,64.95
2017-11-23T06:08:22.045Z,64.93
2017-11-23T06:08:53.712Z,65.03
2017-11-23T06:09:26.074Z,65.00
2017-11-23T06:09:58.588Z,64.96
2017-11-23T06:10:30.345Z,64.87
2017-11-23T06:11:01.994Z,65.04
2017-11-23T06:11:33.633Z,64.96
2017-11-23T06:12:05.283Z,65.07
2017-11-23T06:12:36.916Z,64.83
2017-11-23T06:13:08.596Z,64.99
2017-11-23T06:13:40.203Z,65.04
2017-11-23T06:14:12.149Z,65.04
2017-11-23T06:14:43.757Z,65.21
2017-11-23T06:15:15.435Z,65.06
2017-11-23T06:15:47.061Z,64.84
2017-11-23T06:16:18.669Z,65.03
2017-11-23T06:16:50.275Z,64.98
2017-11-23T06:17:21.908Z,65.05
2017-11-23T06:17:53.644Z,64.99
2017-11-23T06:18:25.284Z,64.88
2017-11-23T06:18:56.893Z,64.89
2017-11-23T06:19:28.506Z,64.99
2017-11-23T06:20:00.152Z,64.91
2017-11-23T06:20:31.773Z,65.10
2017-11-23T06:21:03.495Z,64.93
2017-11-23T06:21:35.140Z,65.06
2017-11-23T06:22:06.779Z,65.15
2017-11-23T06:22:38.396Z,65.01
2017-11-23T06:23:10.005Z,65.17
2017-11-23T06:23:41.609Z,65.09
2017-11-23T06:24:13.346Z,65.17
2017-11-23T06:24:44.988Z,65.20
2017-11-23T06:25:16.629Z,65.12
2017-11-23T06:25:48.278Z,65.14
2017-11-23T06:26:19.932Z,65.07
2017-11-23T06:26:51.560Z,65.25
2017-11-23T06:27:23.169Z,65.13
2017-11-23T06:27:54.776Z,65.22
2017-11-23T06:28:26.380Z,65.30
2017-11-23T06:28:57.989Z,65.26
2017-11-23T06:29:29.597Z,65.40
2017-11-23T06:30:01.204Z,65.36
2017-11-23T06:30:32.808Z,65.27
2017-11-23T06:31:04.420Z,65.33
2017-11-23T06:31:36.070Z,65.38
2017-11-23T06:32:07.676Z,65.37
2017-11-23T06:32:39.309Z,65.34
2017-11-23T06:33:10.953Z,65.37
2017-11-23T06:33:42.594Z,65.40
2017-11-23T06:34:14.196Z,65.36
2017-11-23T06:34:45.801Z,65.35
2017-11-23T06:35:17.518Z,65.35
2017-11-23T06:35:49.160Z,65.43
2017-11-23T06:36:20.813Z,65.33
2017-11-23T06:36:52.443Z,65.28
2017-11-23T06:37:24.086Z,65.35
2017-11-23T06:37:55.729Z,65.43
2017-11-23T06:38:27.337Z,65.32
2017-11-23T06:38:58.945Z,65.41
2017-11-23T06:39:30.653Z,65.42
2017-11-23T06:40:02.301Z,65.43
2017-11-23T06:40:33.938Z,65.44
2017-11-23T06:41:05.545Z,65.43
2017-11-23T06:41:37.219Z,65.50
2017-11-23T06:42:08.863Z,65.52
2017-11-23T06:42:40.506Z,65.62
2017-11-23T06:43:12.147Z,65.52
2017-11-23T06:43:43.758Z,65.59
2017-11-23T06:44:15.369Z,65.64
2017-11-23T06:44:46.981Z,65.46
2017-11-23T06:45:18.712Z,65.58
2017-11-23T06:45:50.357Z,65.54
2017-11-23T06:46:21.998Z,65.56
2017-11-23T06:46:53.613Z,65.47
2017-11-23T06:47:25.282Z,65.54